Donnelly, ID (83615)

9:25 AM MST on February 12, 2016 (GMT -0700)
Railroad Village | | Change Station
CLOSE
Current Station
Personal Weather Station
Location: Donnelly, ID
Elevation: 4872 ft
Nearby Weather Stations

Elev 4872 ft 44.70 °N, 116.08 °W | Updated 9 seconds ago

Fog
Fog
23.5 °F
Feels Like 24 °F
N
2.3
Wind Variable Wind from East
Gusts 4.7 mph

Today
High -- | Low -- °F
--% Chance of Precip.
Yesterday
High -- | Low -- °F
Precip. -- in
Pressure 30.39 in
Visibility 0.2 miles
Clouds
Windchill 24 °F
Dew Point 7 °F
Humidity 49%
Rainfall 0.00 in
Snow Depth Not available.
7:49 AM 6:08 PM
Waxing Crescent, 21% visible
METAR KMYL 121551Z AUTO 00000KT M1/4SM FZFG VV002 M06/M07 A3028 RMK AO2 SLP289 T10611072 $
Pressure 30.39 in
Visibility 0.2 miles
Clouds
Windchill 24 °F
Dew Point 7 °F
Humidity 49%
Rainfall 0.00 in
Snow Depth Not available.
7:49 AM 6:08 PM
Waxing Crescent, 21% visible
METAR KMYL 121551Z AUTO 00000KT M1/4SM FZFG VV002 M06/M07 A3028 RMK AO2 SLP289 T10611072 $

10-Day Weather Forecast

Almanac

Astronomy

Feb. 12, 2016 Rise Set
Actual Time
Civil Twilight
Nautical Twilight
Astronomical Twilight
Moon
Length of Visible Light
Length of Day
Tomorrow will be .
, % of the Moon is Illuminated

Today's Extremes

State Highs State Lows

Community

WunderPhotos

Upload Photos

1,892,350 photos uploaded!

WunderBlog® & News

Nearby

Air Quality

  Air Quality AQ Index Pollutant
Not available.

Snow Depth

Station Depth Elevation

Earthquake Activity

City Distance Mag. Time & Date
Minimum magnitude displayed is 2.5.

Coastal Water Temperatures

Place Temperature

Stations

Nearby Weather Stations

Station Location Temp. Windchill Dew Point Humidity Wind Precip. Elev Updated Type
                   

Watches & Warnings

There are currently no watches in effect.